Weather at Sanggata/Sangkimah Airport

Public forecast

Using degrees Celsius for public forecast. Weather courtesy of forecast.io.

Closest aviation weather report (METAR) to Sanggata/Sangkimah Airport

Closest report is Sultan Aji Muhammad Sulaiman Sepinggan International Airport, 106.6 nm (197.4 km) SSW.

2024/06/18 12:30 (retrieved 27 minutes ago)

WALL 181230Z 27003KT 9999 FEW020 28/26 Q1010 NOSIG

Closest aviation forecast (TAF) to Sanggata/Sangkimah Airport

Closest forecast is Aji Pangeran Tumenggung Pranoto International Airport, 48.9 nm (90.5 km) SSW.

2024/06/18 12:00 (retrieved 57 minutes ago)

TAF WALL 181100Z 1812/1918 29003KT 9999 SCT020 TAF WALS 181100Z 1812/1824 11003KT 9999 FEW015